createdAt,value
2022-11-09T00:02:16.830Z,3.70
2022-11-09T00:04:43.514Z,3.60
2022-11-09T00:07:10.212Z,3.70
2022-11-09T00:09:36.955Z,3.60
2022-11-09T00:12:04.862Z,3.60
2022-11-09T00:14:31.461Z,3.60
2022-11-09T00:16:58.059Z,3.50
2022-11-09T00:19:24.706Z,3.60
2022-11-09T00:21:51.339Z,3.60
2022-11-09T00:24:17.950Z,3.60
2022-11-09T00:26:44.602Z,3.60
2022-11-09T00:29:11.239Z,3.50
2022-11-09T00:31:37.837Z,3.60
2022-11-09T00:34:04.639Z,3.60
2022-11-09T00:36:31.245Z,3.60
2022-11-09T00:38:59.867Z,3.60
2022-11-09T00:41:27.060Z,3.70
2022-11-09T00:43:55.331Z,3.70
2022-11-09T00:46:23.495Z,3.60
2022-11-09T00:48:51.127Z,3.60
2022-11-09T00:51:18.986Z,3.50
2022-11-09T00:53:48.205Z,3.40
2022-11-09T00:56:15.049Z,3.40
2022-11-09T00:58:41.806Z,3.40
2022-11-09T01:01:13.620Z,3.30
2022-11-09T01:03:42.449Z,3.20
2022-11-09T01:06:09.235Z,3.20
2022-11-09T01:08:35.935Z,3.20
2022-11-09T01:11:06.785Z,3.20
2022-11-09T01:13:33.855Z,3.10
2022-11-09T01:16:04.195Z,3.00
2022-11-09T01:18:30.941Z,3.00
2022-11-09T01:20:57.535Z,3.00
2022-11-09T01:23:24.147Z,3.10
2022-11-09T01:25:56.983Z,3.10
2022-11-09T01:28:23.580Z,3.00
2022-11-09T01:30:50.184Z,3.00
2022-11-09T01:33:17.136Z,3.10
2022-11-09T01:35:43.894Z,3.20
2022-11-09T01:38:10.672Z,3.20
2022-11-09T01:40:38.519Z,3.10
2022-11-09T01:43:07.563Z,3.00
2022-11-09T01:45:34.202Z,2.90
2022-11-09T01:48:12.000Z,2.80
2022-11-09T01:50:45.235Z,2.90
2022-11-09T01:53:17.848Z,2.80
2022-11-09T01:55:47.917Z,2.80
2022-11-09T01:58:18.108Z,2.80
2022-11-09T02:00:46.562Z,2.70
2022-11-09T02:03:17.901Z,2.70
2022-11-09T02:05:45.455Z,2.70
2022-11-09T02:08:14.526Z,2.90
2022-11-09T02:10:54.958Z,2.90
2022-11-09T02:13:22.876Z,2.90
2022-11-09T02:15:50.135Z,2.80
2022-11-09T02:18:17.211Z,2.60
2022-11-09T02:20:45.043Z,2.60
2022-11-09T02:23:12.224Z,2.70
2022-11-09T02:25:38.871Z,2.70
2022-11-09T02:28:05.822Z,2.80
2022-11-09T02:30:33.370Z,2.80
2022-11-09T02:33:00.067Z,2.80
2022-11-09T02:35:26.729Z,2.80
2022-11-09T02:37:53.792Z,2.80
2022-11-09T02:40:26.595Z,2.90
2022-11-09T02:42:54.356Z,2.90
2022-11-09T02:45:21.214Z,2.90
2022-11-09T02:47:47.894Z,2.90
2022-11-09T02:50:14.517Z,2.90
2022-11-09T02:52:42.308Z,2.90
2022-11-09T02:55:09.618Z,2.90
2022-11-09T02:57:36.315Z,2.90
2022-11-09T03:00:04.896Z,2.90
2022-11-09T03:02:32.087Z,2.90
2022-11-09T03:05:00.532Z,2.90
2022-11-09T03:07:28.030Z,2.80
2022-11-09T03:09:54.672Z,2.90
2022-11-09T03:12:29.386Z,2.80
2022-11-09T03:15:01.192Z,2.70
2022-11-09T03:17:28.068Z,2.70
2022-11-09T03:19:55.050Z,2.70
2022-11-09T03:22:21.752Z,2.70
2022-11-09T03:24:48.748Z,2.80
2022-11-09T03:27:16.638Z,2.70
2022-11-09T03:29:43.310Z,2.80
2022-11-09T03:32:10.095Z,2.80
2022-11-09T03:34:36.719Z,2.80
2022-11-09T03:37:03.803Z,2.80
2022-11-09T03:39:31.876Z,2.80
2022-11-09T03:41:58.487Z,2.60
2022-11-09T03:44:25.926Z,2.60
2022-11-09T03:46:52.605Z,2.70
2022-11-09T03:49:19.243Z,2.70
2022-11-09T03:51:45.923Z,2.70
2022-11-09T03:54:12.606Z,2.70
2022-11-09T03:56:39.230Z,2.70
2022-11-09T03:59:05.881Z,2.70
2022-11-09T04:01:32.589Z,2.70
2022-11-09T04:03:59.233Z,2.70
2022-11-09T04:06:25.892Z,2.70
2022-11-09T04:08:52.538Z,2.70
2022-11-09T04:11:19.321Z,2.70
2022-11-09T04:13:47.209Z,2.70
2022-11-09T04:16:13.887Z,2.70
2022-11-09T04:18:40.499Z,2.80
2022-11-09T04:21:07.223Z,2.80
2022-11-09T04:23:33.840Z,2.80
2022-11-09T04:26:00.454Z,2.70
2022-11-09T04:28:27.068Z,2.80
2022-11-09T04:30:53.666Z,2.70
2022-11-09T04:33:20.700Z,2.80
2022-11-09T04:35:47.520Z,2.80
2022-11-09T04:38:14.456Z,2.80
2022-11-09T04:40:41.393Z,2.80
2022-11-09T04:43:10.452Z,2.70
2022-11-09T04:45:37.076Z,2.70
2022-11-09T04:48:05.628Z,2.70
2022-11-09T04:50:32.523Z,2.70
2022-11-09T04:53:09.523Z,2.80
2022-11-09T04:55:36.215Z,2.80
2022-11-09T04:58:02.984Z,2.70
2022-11-09T05:00:29.946Z,2.50
2022-11-09T05:02:59.275Z,2.50
2022-11-09T05:05:25.870Z,2.50
2022-11-09T05:07:52.459Z,2.60
2022-11-09T05:10:19.064Z,2.70
2022-11-09T05:12:46.140Z,2.70
2022-11-09T05:15:12.857Z,2.70
2022-11-09T05:17:39.451Z,2.80
2022-11-09T05:20:06.344Z,2.70
2022-11-09T05:22:51.410Z,2.80
2022-11-09T05:25:18.019Z,2.90
2022-11-09T05:27:44.621Z,3.00
2022-11-09T05:30:11.584Z,3.00
2022-11-09T05:32:41.039Z,3.00
2022-11-09T05:35:08.169Z,3.00
2022-11-09T05:37:34.884Z,3.00
2022-11-09T05:40:01.556Z,3.10
2022-11-09T05:42:28.198Z,3.20
2022-11-09T05:44:55.665Z,3.10
2022-11-09T05:47:22.403Z,3.10
2022-11-09T05:49:49.143Z,3.10
2022-11-09T05:52:15.728Z,3.20
2022-11-09T05:54:53.418Z,3.30
2022-11-09T05:57:20.020Z,3.20
2022-11-09T05:59:46.623Z,3.30
2022-11-09T06:02:13.346Z,3.40
2022-11-09T06:04:40.052Z,3.40
2022-11-09T06:07:06.732Z,3.50
2022-11-09T06:09:33.403Z,3.50
2022-11-09T06:12:00.029Z,3.60
2022-11-09T06:14:26.733Z,3.60
2022-11-09T06:16:53.438Z,3.60
2022-11-09T06:19:20.050Z,3.70
2022-11-09T06:21:46.677Z,3.70
2022-11-09T06:24:13.291Z,3.70
2022-11-09T06:26:40.000Z,3.60
2022-11-09T06:29:06.638Z,3.60
2022-11-09T06:31:33.276Z,3.60
2022-11-09T06:33:59.872Z,3.60
2022-11-09T06:36:26.526Z,3.60
2022-11-09T06:38:53.162Z,3.60
2022-11-09T06:41:19.818Z,3.70
2022-11-09T06:43:46.656Z,3.70
2022-11-09T06:46:17.183Z,3.80
2022-11-09T06:48:44.455Z,3.80
2022-11-09T06:51:12.167Z,3.80
2022-11-09T06:53:41.231Z,3.80
2022-11-09T06:56:08.769Z,3.80
2022-11-09T06:58:35.959Z,3.90
2022-11-09T07:01:15.415Z,3.90
2022-11-09T07:03:42.311Z,4.00
2022-11-09T07:06:10.083Z,4.00
2022-11-09T07:08:37.207Z,4.00
2022-11-09T07:11:04.773Z,4.10
2022-11-09T07:13:31.404Z,4.20
2022-11-09T07:15:58.304Z,4.20
2022-11-09T07:18:24.959Z,4.30
2022-11-09T07:20:51.909Z,4.30
2022-11-09T07:23:19.033Z,4.30
2022-11-09T07:25:45.871Z,4.40
2022-11-09T07:28:12.767Z,4.40
2022-11-09T07:30:39.574Z,4.50
2022-11-09T07:33:13.783Z,4.60
2022-11-09T07:35:40.562Z,4.70
2022-11-09T07:38:07.170Z,4.80
2022-11-09T07:40:34.119Z,4.90
2022-11-09T07:43:01.298Z,5.00
2022-11-09T07:45:29.155Z,5.20
2022-11-09T07:47:56.623Z,5.30
2022-11-09T07:50:23.232Z,5.50
2022-11-09T07:52:49.816Z,5.60
2022-11-09T07:55:17.439Z,5.80
2022-11-09T07:57:44.331Z,5.90
2022-11-09T08:00:11.712Z,6.10
2022-11-09T08:02:38.551Z,6.30
2022-11-09T08:05:05.451Z,6.50
2022-11-09T08:07:33.571Z,6.70
2022-11-09T08:10:00.178Z,6.90
2022-11-09T08:12:26.844Z,7.00
2022-11-09T08:14:53.460Z,7.20
2022-11-09T08:17:20.121Z,7.40
2022-11-09T08:19:46.711Z,7.60
2022-11-09T08:22:13.335Z,7.80
2022-11-09T08:24:39.944Z,8.00
2022-11-09T08:27:06.645Z,8.20
2022-11-09T08:29:33.296Z,8.40
2022-11-09T08:31:59.917Z,8.60
2022-11-09T08:34:26.643Z,8.70
2022-11-09T08:36:53.525Z,8.70
2022-11-09T08:39:22.307Z,8.80
2022-11-09T08:41:48.922Z,8.90
2022-11-09T08:44:15.586Z,9.10
2022-11-09T08:46:42.182Z,9.20
2022-11-09T08:49:08.908Z,9.40
2022-11-09T08:51:35.544Z,9.60
2022-11-09T08:54:02.731Z,9.90
2022-11-09T08:56:29.428Z,10.30
2022-11-09T08:58:56.035Z,10.40
2022-11-09T09:01:22.901Z,10.50
2022-11-09T09:03:49.595Z,10.60
2022-11-09T09:06:16.224Z,10.70
2022-11-09T09:08:42.898Z,10.80
2022-11-09T09:11:09.566Z,11.00
2022-11-09T09:13:40.537Z,11.00
2022-11-09T09:16:13.898Z,11.10
2022-11-09T09:18:40.779Z,11.20
2022-11-09T09:21:08.318Z,11.30
2022-11-09T09:23:35.448Z,11.30
2022-11-09T09:26:02.066Z,11.30
2022-11-09T09:28:28.694Z,11.30
2022-11-09T09:30:57.555Z,11.30
2022-11-09T09:33:24.161Z,11.40
2022-11-09T09:35:51.446Z,11.40
2022-11-09T09:38:18.907Z,11.30
2022-11-09T09:40:54.998Z,11.40
2022-11-09T09:43:28.064Z,11.50
2022-11-09T09:45:54.973Z,11.60
2022-11-09T09:48:38.038Z,11.60
2022-11-09T09:51:23.751Z,11.70
2022-11-09T09:53:55.549Z,11.70
2022-11-09T09:56:25.194Z,11.80
2022-11-09T09:58:54.995Z,11.90
2022-11-09T10:01:23.907Z,12.00
2022-11-09T10:03:50.883Z,12.10
2022-11-09T10:06:17.473Z,12.10
2022-11-09T10:08:44.146Z,12.20
2022-11-09T10:11:22.936Z,12.20
2022-11-09T10:14:07.069Z,12.20
2022-11-09T10:16:41.032Z,12.40
2022-11-09T10:19:07.666Z,12.40
2022-11-09T10:21:40.299Z,12.30
2022-11-09T10:24:07.562Z,12.30
2022-11-09T10:26:46.536Z,12.40
2022-11-09T10:29:20.076Z,12.40
2022-11-09T10:31:47.772Z,12.40
2022-11-09T10:34:19.216Z,12.50
2022-11-09T10:36:58.504Z,12.50
2022-11-09T10:39:27.096Z,12.50
2022-11-09T10:42:12.433Z,12.50
2022-11-09T10:44:58.716Z,12.50
2022-11-09T10:47:47.929Z,12.70
2022-11-09T10:50:35.205Z,12.70
2022-11-09T10:53:33.504Z,12.70
2022-11-09T10:56:21.561Z,12.70
2022-11-09T10:59:25.884Z,12.70
2022-11-09T11:02:29.960Z,12.70
2022-11-09T11:05:18.291Z,12.70
2022-11-09T11:08:12.031Z,12.80
2022-11-09T11:11:32.268Z,13.00
2022-11-09T11:14:19.932Z,13.10
2022-11-09T11:17:20.180Z,13.20
2022-11-09T11:20:24.060Z,13.30
2022-11-09T11:23:09.052Z,13.50
2022-11-09T11:25:53.981Z,13.50
2022-11-09T11:28:49.707Z,13.40
2022-11-09T11:31:35.019Z,13.40
2022-11-09T11:34:45.770Z,13.30
2022-11-09T11:37:44.227Z,13.40
2022-11-09T11:40:34.853Z,13.40
2022-11-09T11:43:34.691Z,13.30
2022-11-09T11:46:28.180Z,13.30
2022-11-09T11:49:16.620Z,13.30
2022-11-09T11:52:13.921Z,13.30
2022-11-09T11:55:13.637Z,13.30
2022-11-09T11:58:17.727Z,13.30
2022-11-09T12:01:26.176Z,13.30
2022-11-09T12:04:31.847Z,13.20
2022-11-09T12:07:17.407Z,13.20
2022-11-09T12:10:02.948Z,13.10
2022-11-09T12:13:11.831Z,13.10
2022-11-09T12:16:04.887Z,13.00
2022-11-09T12:18:55.084Z,13.00
2022-11-09T12:21:40.339Z,13.00
2022-11-09T12:24:31.768Z,13.00
2022-11-09T12:27:32.286Z,13.00
2022-11-09T12:30:38.335Z,13.00
2022-11-09T12:33:34.869Z,13.00
2022-11-09T12:36:35.829Z,13.10
2022-11-09T12:39:27.140Z,13.20
2022-11-09T12:42:18.996Z,13.20
2022-11-09T12:45:13.362Z,13.30
2022-11-09T12:48:00.630Z,13.40
2022-11-09T12:50:46.063Z,13.50
2022-11-09T12:53:38.530Z,13.50
2022-11-09T12:56:29.655Z,13.50
2022-11-09T12:59:22.545Z,13.60
2022-11-09T13:02:18.719Z,13.50
2022-11-09T13:05:05.447Z,13.50
2022-11-09T13:07:52.153Z,13.50
2022-11-09T13:10:38.066Z,13.50
2022-11-09T13:13:25.003Z,13.60
2022-11-09T13:16:19.664Z,13.60
2022-11-09T13:19:08.407Z,13.70
2022-11-09T13:21:53.383Z,13.80
2022-11-09T13:24:59.997Z,14.00
2022-11-09T13:27:46.966Z,14.00
2022-11-09T13:30:35.329Z,14.10
2022-11-09T13:33:21.757Z,14.10
2022-11-09T13:36:07.229Z,14.10
2022-11-09T13:39:23.208Z,14.20
2022-11-09T13:42:27.988Z,14.10
2022-11-09T13:45:17.112Z,13.90
2022-11-09T13:48:02.873Z,13.80
2022-11-09T13:50:56.690Z,13.60
2022-11-09T13:53:53.111Z,13.50
2022-11-09T13:56:39.876Z,13.40
2022-11-09T13:59:30.067Z,13.30
2022-11-09T14:02:20.688Z,13.30
2022-11-09T14:05:06.489Z,13.30
2022-11-09T14:07:52.898Z,13.30
2022-11-09T14:10:57.134Z,13.30
2022-11-09T14:13:49.200Z,13.20
2022-11-09T14:16:37.416Z,13.10
2022-11-09T14:19:33.974Z,13.10
2022-11-09T14:22:20.056Z,13.10
2022-11-09T14:25:15.659Z,13.00
2022-11-09T14:28:00.887Z,12.90
2022-11-09T14:30:46.208Z,12.90
2022-11-09T14:33:34.731Z,12.80
2022-11-09T14:36:19.920Z,12.70
2022-11-09T14:39:05.836Z,12.70
2022-11-09T14:41:51.781Z,12.60
2022-11-09T14:44:40.450Z,12.50
2022-11-09T14:47:31.163Z,12.40
2022-11-09T14:50:36.396Z,12.40
2022-11-09T14:53:29.260Z,12.30
2022-11-09T14:56:17.320Z,12.30
2022-11-09T14:59:04.785Z,12.30
2022-11-09T15:01:57.683Z,12.20
2022-11-09T15:04:58.260Z,12.20
2022-11-09T15:07:45.525Z,12.10
2022-11-09T15:10:32.561Z,12.10
2022-11-09T15:13:18.704Z,12.10
2022-11-09T15:16:04.502Z,12.00
2022-11-09T15:18:49.947Z,12.00
2022-11-09T15:21:37.768Z,12.00
2022-11-09T15:24:25.040Z,12.00
2022-11-09T15:27:29.431Z,11.90
2022-11-09T15:30:29.997Z,11.90
2022-11-09T15:33:24.114Z,11.90
2022-11-09T15:36:21.681Z,11.80
2022-11-09T15:39:12.756Z,11.70
2022-11-09T15:41:57.997Z,11.70
2022-11-09T15:44:43.396Z,11.70
2022-11-09T15:47:31.838Z,11.70
2022-11-09T15:50:18.222Z,11.60
2022-11-09T15:53:03.389Z,11.50
2022-11-09T15:55:48.991Z,11.40
2022-11-09T15:58:34.236Z,11.40
2022-11-09T16:01:19.380Z,11.30
2022-11-09T16:04:04.818Z,11.20
2022-11-09T16:06:49.927Z,11.20
2022-11-09T16:09:38.399Z,11.10
2022-11-09T16:12:23.420Z,11.00
2022-11-09T16:15:08.622Z,11.00
2022-11-09T16:17:54.172Z,10.90
2022-11-09T16:20:40.275Z,10.90
2022-11-09T16:23:25.764Z,10.80
2022-11-09T16:26:12.294Z,10.80
2022-11-09T16:28:57.446Z,10.70
2022-11-09T16:31:51.691Z,10.70
2022-11-09T16:34:37.202Z,10.60
2022-11-09T16:37:22.344Z,10.60
2022-11-09T16:40:09.775Z,10.50
2022-11-09T16:42:55.563Z,10.40
2022-11-09T16:45:46.062Z,10.40
2022-11-09T16:48:34.635Z,10.40
2022-11-09T16:51:20.617Z,10.30
2022-11-09T16:54:05.801Z,10.20
2022-11-09T16:56:52.188Z,10.20
2022-11-09T16:59:37.558Z,10.20
2022-11-09T17:02:23.931Z,10.10
2022-11-09T17:05:09.203Z,10.10
2022-11-09T17:07:54.349Z,10.00
2022-11-09T17:10:43.491Z,10.10
2022-11-09T17:13:28.534Z,10.00
2022-11-09T17:16:14.267Z,10.00
2022-11-09T17:18:59.940Z,10.00
2022-11-09T17:21:45.235Z,10.00
2022-11-09T17:24:30.581Z,10.00
2022-11-09T17:27:16.614Z,10.00
2022-11-09T17:30:02.073Z,10.00
2022-11-09T17:32:48.513Z,9.90
2022-11-09T17:35:36.612Z,9.90
2022-11-09T17:38:21.933Z,9.90
2022-11-09T17:41:08.783Z,9.90
2022-11-09T17:43:53.951Z,9.90
2022-11-09T17:46:39.021Z,10.00
2022-11-09T17:49:24.089Z,9.90
2022-11-09T17:52:09.257Z,9.80
2022-11-09T17:54:54.237Z,9.80
2022-11-09T17:57:39.320Z,9.80
2022-11-09T18:00:24.313Z,9.80
2022-11-09T18:03:09.635Z,9.80
2022-11-09T18:05:54.815Z,9.80
2022-11-09T18:08:40.192Z,9.70
2022-11-09T18:11:25.411Z,9.70
2022-11-09T18:14:11.169Z,9.70
2022-11-09T18:16:59.447Z,9.60
2022-11-09T18:19:44.840Z,9.70
2022-11-09T18:22:29.799Z,9.60
2022-11-09T18:25:14.976Z,9.60
2022-11-09T18:27:59.965Z,9.60
2022-11-09T18:30:45.200Z,9.60
2022-11-09T18:33:30.489Z,9.50
2022-11-09T18:36:18.482Z,9.50
2022-11-09T18:39:03.638Z,9.50
2022-11-09T18:41:48.690Z,9.50
2022-11-09T18:44:33.748Z,9.50
2022-11-09T18:47:20.305Z,9.50
2022-11-09T18:50:05.618Z,9.50
2022-11-09T18:52:50.974Z,9.40
2022-11-09T18:55:36.136Z,9.40
2022-11-09T18:58:21.347Z,9.40
2022-11-09T19:01:07.610Z,9.40
2022-11-09T19:03:57.759Z,9.40
2022-11-09T19:06:44.462Z,9.40
2022-11-09T19:09:30.001Z,9.40
2022-11-09T19:12:15.118Z,9.40
2022-11-09T19:15:00.635Z,9.40
2022-11-09T19:17:45.569Z,9.40
2022-11-09T19:20:30.538Z,9.40
2022-11-09T19:23:16.183Z,9.40
2022-11-09T19:26:01.655Z,9.40
2022-11-09T19:28:47.077Z,9.40
2022-11-09T19:31:31.946Z,9.40
2022-11-09T19:34:18.771Z,9.40
2022-11-09T19:37:04.029Z,9.50
2022-11-09T19:39:49.131Z,9.50
2022-11-09T19:42:34.336Z,9.50
2022-11-09T19:45:19.318Z,9.40
2022-11-09T19:48:04.400Z,9.40
2022-11-09T19:50:50.001Z,9.40
2022-11-09T19:53:41.069Z,9.40
2022-11-09T19:56:28.774Z,9.40
2022-11-09T19:59:14.792Z,9.40
2022-11-09T20:01:59.918Z,9.40
2022-11-09T20:04:46.690Z,9.40
2022-11-09T20:07:32.109Z,9.40
2022-11-09T20:10:17.286Z,9.30
2022-11-09T20:13:02.551Z,9.40
2022-11-09T20:15:47.833Z,9.40
2022-11-09T20:18:37.078Z,9.40
2022-11-09T20:21:22.058Z,9.40
2022-11-09T20:24:08.031Z,9.40
2022-11-09T20:26:53.088Z,9.30
2022-11-09T20:29:38.113Z,9.30
2022-11-09T20:32:23.600Z,9.40
2022-11-09T20:35:09.646Z,9.30
2022-11-09T20:37:54.695Z,9.40
2022-11-09T20:40:39.917Z,9.30
2022-11-09T20:43:25.861Z,9.30
2022-11-09T20:46:15.861Z,9.30
2022-11-09T20:49:01.742Z,9.30
2022-11-09T20:51:47.196Z,9.30
2022-11-09T20:54:32.307Z,9.30
2022-11-09T20:57:17.473Z,9.30
2022-11-09T21:00:02.698Z,9.20
2022-11-09T21:02:48.808Z,9.20
2022-11-09T21:05:34.013Z,9.20
2022-11-09T21:08:19.294Z,9.20
2022-11-09T21:11:05.477Z,9.10
2022-11-09T21:13:51.159Z,9.10
2022-11-09T21:16:36.220Z,9.00
2022-11-09T21:19:21.300Z,9.00
2022-11-09T21:22:06.514Z,9.00
2022-11-09T21:25:10.303Z,9.00
2022-11-09T21:28:14.934Z,9.10
2022-11-09T21:31:01.295Z,9.00
2022-11-09T21:33:46.323Z,9.00
2022-11-09T21:36:31.341Z,9.00
2022-11-09T21:39:16.740Z,9.00
2022-11-09T21:42:02.622Z,9.00
2022-11-09T21:44:47.747Z,9.00
2022-11-09T21:47:32.757Z,9.00
2022-11-09T21:50:17.736Z,9.00
2022-11-09T21:53:02.884Z,9.00
2022-11-09T21:55:47.837Z,9.00
2022-11-09T21:58:34.322Z,8.90
2022-11-09T22:01:20.327Z,8.90
2022-11-09T22:04:05.673Z,8.90
2022-11-09T22:06:51.194Z,8.90
2022-11-09T22:10:05.897Z,8.90
2022-11-09T22:13:00.058Z,8.90
2022-11-09T22:16:04.059Z,8.90
2022-11-09T22:19:08.191Z,8.90
2022-11-09T22:21:53.695Z,9.00
2022-11-09T22:24:38.983Z,8.90
2022-11-09T22:27:24.250Z,8.90
2022-11-09T22:30:09.503Z,9.00
2022-11-09T22:32:57.489Z,8.90
2022-11-09T22:35:42.490Z,8.90
2022-11-09T22:38:27.588Z,8.90
2022-11-09T22:41:14.130Z,8.90
2022-11-09T22:44:00.047Z,8.90
2022-11-09T22:46:45.594Z,8.90
2022-11-09T22:49:30.509Z,8.90
2022-11-09T22:52:16.387Z,8.90
2022-11-09T22:55:01.871Z,8.90
2022-11-09T22:57:46.877Z,9.00
2022-11-09T23:00:31.971Z,9.00
2022-11-09T23:03:17.111Z,9.00
2022-11-09T23:06:03.686Z,9.00
2022-11-09T23:08:49.470Z,9.00
2022-11-09T23:11:34.737Z,9.00
2022-11-09T23:14:39.869Z,9.00
2022-11-09T23:17:43.733Z,9.00
2022-11-09T23:20:35.197Z,9.00
2022-11-09T23:23:21.130Z,9.00
2022-11-09T23:26:07.068Z,9.00
2022-11-09T23:28:52.558Z,8.90
2022-11-09T23:31:37.560Z,9.00
2022-11-09T23:34:22.699Z,8.90
2022-11-09T23:37:07.735Z,8.90
2022-11-09T23:39:52.931Z,8.90
2022-11-09T23:42:37.928Z,8.90
2022-11-09T23:45:23.019Z,8.90
2022-11-09T23:48:12.424Z,9.00
2022-11-09T23:50:58.839Z,9.00
2022-11-09T23:53:43.942Z,9.00
2022-11-09T23:56:30.287Z,9.00
2022-11-09T23:59:15.571Z,8.90
